sensor_id;sensor_type;location;lat;lon;timestamp;temperature;humidity
44229;DHT22;29904;51.058;5.378;2023-03-20T00:00:34;9.30;99.90
44229;DHT22;29904;51.058;5.378;2023-03-20T00:03:00;9.20;99.90
44229;DHT22;29904;51.058;5.378;2023-03-20T00:05:28;9.10;99.90
44229;DHT22;29904;51.058;5.378;2023-03-20T00:07:55;9.00;99.90
44229;DHT22;29904;51.058;5.378;2023-03-20T00:10:27;8.80;99.90
44229;DHT22;29904;51.058;5.378;2023-03-20T00:12:54;8.70;99.90
44229;DHT22;29904;51.058;5.378;2023-03-20T00:15:35;8.60;99.90
44229;DHT22;29904;51.058;5.378;2023-03-20T00:18:03;8.50;99.90
44229;DHT22;29904;51.058;5.378;2023-03-20T00:20:29;8.40;99.90
44229;DHT22;29904;51.058;5.378;2023-03-20T00:22:55;8.30;99.90
44229;DHT22;29904;51.058;5.378;2023-03-20T00:25:23;8.20;99.90
44229;DHT22;29904;51.058;5.378;2023-03-20T00:27:51;8.10;99.90
44229;DHT22;29904;51.058;5.378;2023-03-20T00:30:29;8.00;99.90
44229;DHT22;29904;51.058;5.378;2023-03-20T00:32:56;7.90;99.90
44229;DHT22;29904;51.058;5.378;2023-03-20T00:35:27;7.80;99.90
44229;DHT22;29904;51.058;5.378;2023-03-20T00:37:54;7.70;99.90
44229;DHT22;29904;51.058;5.378;2023-03-20T00:40:21;7.50;99.90
44229;DHT22;29904;51.058;5.378;2023-03-20T00:42:50;7.50;99.90
44229;DHT22;29904;51.058;5.378;2023-03-20T00:45:21;7.40;99.90
44229;DHT22;29904;51.058;5.378;2023-03-20T00:47:50;7.30;99.90
44229;DHT22;29904;51.058;5.378;2023-03-20T00:50:29;7.20;99.90
44229;DHT22;29904;51.058;5.378;2023-03-20T00:52:56;7.10;99.90
44229;DHT22;29904;51.058;5.378;2023-03-20T00:55:24;7.10;99.90
44229;DHT22;29904;51.058;5.378;2023-03-20T00:57:59;7.00;99.90
44229;DHT22;29904;51.058;5.378;2023-03-20T01:02:55;6.90;99.90
44229;DHT22;29904;51.058;5.378;2023-03-20T01:05:23;6.80;99.90
44229;DHT22;29904;51.058;5.378;2023-03-20T01:07:49;6.80;99.90
44229;DHT22;29904;51.058;5.378;2023-03-20T01:10:15;6.80;99.90
44229;DHT22;29904;51.058;5.378;2023-03-20T01:12:42;6.80;99.90
44229;DHT22;29904;51.058;5.378;2023-03-20T01:15:21;6.70;99.90
44229;DHT22;29904;51.058;5.378;2023-03-20T01:17:47;6.60;99.90
44229;DHT22;29904;51.058;5.378;2023-03-20T01:20:15;6.60;99.90
44229;DHT22;29904;51.058;5.378;2023-03-20T01:22:42;6.60;99.90
44229;DHT22;29904;51.058;5.378;2023-03-20T01:25:08;6.60;99.90
44229;DHT22;29904;51.058;5.378;2023-03-20T01:27:34;6.50;99.90
44229;DHT22;29904;51.058;5.378;2023-03-20T01:30:00;6.60;99.90
44229;DHT22;29904;51.058;5.378;2023-03-20T01:32:25;6.60;99.90
44229;DHT22;29904;51.058;5.378;2023-03-20T01:34:51;6.60;99.90
44229;DHT22;29904;51.058;5.378;2023-03-20T01:37:26;6.60;99.90
44229;DHT22;29904;51.058;5.378;2023-03-20T01:39:52;6.60;99.90
44229;DHT22;29904;51.058;5.378;2023-03-20T01:42:18;6.50;99.90
44229;DHT22;29904;51.058;5.378;2023-03-20T01:44:44;6.50;99.90
44229;DHT22;29904;51.058;5.378;2023-03-20T01:47:22;6.50;99.90
44229;DHT22;29904;51.058;5.378;2023-03-20T01:52:27;6.50;99.90
44229;DHT22;29904;51.058;5.378;2023-03-20T01:54:53;6.50;99.90
44229;DHT22;29904;51.058;5.378;2023-03-20T01:57:21;6.40;99.90
44229;DHT22;29904;51.058;5.378;2023-03-20T02:00:01;6.40;99.90
44229;DHT22;29904;51.058;5.378;2023-03-20T02:02:29;6.30;99.90
44229;DHT22;29904;51.058;5.378;2023-03-20T02:05:03;6.30;99.90
44229;DHT22;29904;51.058;5.378;2023-03-20T02:07:32;6.30;99.90
44229;DHT22;29904;51.058;5.378;2023-03-20T02:10:10;6.20;99.90
44229;DHT22;29904;51.058;5.378;2023-03-20T02:12:38;6.20;99.90
44229;DHT22;29904;51.058;5.378;2023-03-20T02:15:06;6.20;99.90
44229;DHT22;29904;51.058;5.378;2023-03-20T02:17:32;6.10;99.90
44229;DHT22;29904;51.058;5.378;2023-03-20T02:39:46;6.00;99.90
44229;DHT22;29904;51.058;5.378;2023-03-20T02:42:07;6.10;99.90
44229;DHT22;29904;51.058;5.378;2023-03-20T02:53:53;6.60;99.90
44229;DHT22;29904;51.058;5.378;2023-03-20T02:57:19;6.60;99.90
44229;DHT22;29904;51.058;5.378;2023-03-20T03:02:12;6.70;99.90
44229;DHT22;29904;51.058;5.378;2023-03-20T03:04:49;6.70;99.90
44229;DHT22;29904;51.058;5.378;2023-03-20T03:07:19;6.70;99.90
44229;DHT22;29904;51.058;5.378;2023-03-20T03:09:55;6.80;99.90
44229;DHT22;29904;51.058;5.378;2023-03-20T03:12:31;6.90;99.90
44229;DHT22;29904;51.058;5.378;2023-03-20T03:15:05;7.00;99.90
44229;DHT22;29904;51.058;5.378;2023-03-20T03:17:33;7.10;99.90
44229;DHT22;29904;51.058;5.378;2023-03-20T03:20:04;7.10;99.90
44229;DHT22;29904;51.058;5.378;2023-03-20T03:22:33;7.10;99.90
44229;DHT22;29904;51.058;5.378;2023-03-20T03:25:00;7.20;99.90
44229;DHT22;29904;51.058;5.378;2023-03-20T03:27:33;7.30;99.90
44229;DHT22;29904;51.058;5.378;2023-03-20T03:30:07;7.20;99.90
44229;DHT22;29904;51.058;5.378;2023-03-20T03:32:41;7.20;99.90
44229;DHT22;29904;51.058;5.378;2023-03-20T03:35:14;7.20;99.90
44229;DHT22;29904;51.058;5.378;2023-03-20T03:40:33;7.30;99.90
44229;DHT22;29904;51.058;5.378;2023-03-20T03:43:06;7.20;99.90
44229;DHT22;29904;51.058;5.378;2023-03-20T03:45:40;7.30;99.90
44229;DHT22;29904;51.058;5.378;2023-03-20T03:48:20;7.20;99.90
44229;DHT22;29904;51.058;5.378;2023-03-20T03:50:47;7.20;99.90
44229;DHT22;29904;51.058;5.378;2023-03-20T03:53:19;7.20;99.90
44229;DHT22;29904;51.058;5.378;2023-03-20T03:55:52;7.20;99.90
44229;DHT22;29904;51.058;5.378;2023-03-20T03:58:29;7.20;99.90
44229;DHT22;29904;51.058;5.378;2023-03-20T04:00:59;7.20;99.90
44229;DHT22;29904;51.058;5.378;2023-03-20T04:03:31;7.20;99.90
44229;DHT22;29904;51.058;5.378;2023-03-20T04:05:59;7.30;99.90
44229;DHT22;29904;51.058;5.378;2023-03-20T04:08:26;7.30;99.90
44229;DHT22;29904;51.058;5.378;2023-03-20T04:10:52;7.30;99.90
44229;DHT22;29904;51.058;5.378;2023-03-20T04:13:17;7.20;99.90
44229;DHT22;29904;51.058;5.378;2023-03-20T04:15:43;7.20;99.90
44229;DHT22;29904;51.058;5.378;2023-03-20T04:18:14;7.20;99.90
44229;DHT22;29904;51.058;5.378;2023-03-20T04:20:41;7.20;99.90
44229;DHT22;29904;51.058;5.378;2023-03-20T04:23:07;7.20;99.90
44229;DHT22;29904;51.058;5.378;2023-03-20T04:25:33;7.10;99.90
44229;DHT22;29904;51.058;5.378;2023-03-20T04:27:59;7.10;99.90
44229;DHT22;29904;51.058;5.378;2023-03-20T04:30:24;7.00;99.90
44229;DHT22;29904;51.058;5.378;2023-03-20T04:32:50;7.00;99.90
44229;DHT22;29904;51.058;5.378;2023-03-20T04:35:16;7.00;99.90
44229;DHT22;29904;51.058;5.378;2023-03-20T04:37:42;7.00;99.90
44229;DHT22;29904;51.058;5.378;2023-03-20T04:40:08;7.00;99.90
44229;DHT22;29904;51.058;5.378;2023-03-20T04:42:34;6.90;99.90
44229;DHT22;29904;51.058;5.378;2023-03-20T04:44:59;6.90;99.90
44229;DHT22;29904;51.058;5.378;2023-03-20T04:47:25;6.90;99.90
44229;DHT22;29904;51.058;5.378;2023-03-20T04:49:51;6.90;99.90
44229;DHT22;29904;51.058;5.378;2023-03-20T04:52:17;6.90;99.90
44229;DHT22;29904;51.058;5.378;2023-03-20T04:54:42;6.80;99.90
44229;DHT22;29904;51.058;5.378;2023-03-20T04:57:08;6.80;99.90
44229;DHT22;29904;51.058;5.378;2023-03-20T04:59:34;6.80;99.90
44229;DHT22;29904;51.058;5.378;2023-03-20T05:01:59;6.80;99.90
44229;DHT22;29904;51.058;5.378;2023-03-20T05:04:25;6.80;99.90
44229;DHT22;29904;51.058;5.378;2023-03-20T05:06:52;6.70;99.90
44229;DHT22;29904;51.058;5.378;2023-03-20T05:09:18;6.70;99.90
44229;DHT22;29904;51.058;5.378;2023-03-20T05:11:44;6.70;99.90
44229;DHT22;29904;51.058;5.378;2023-03-20T05:14:09;6.60;99.90
44229;DHT22;29904;51.058;5.378;2023-03-20T05:16:37;6.60;99.90
44229;DHT22;29904;51.058;5.378;2023-03-20T05:19:02;6.60;99.90
44229;DHT22;29904;51.058;5.378;2023-03-20T05:21:28;6.60;99.90
44229;DHT22;29904;51.058;5.378;2023-03-20T05:23:54;6.60;99.90
44229;DHT22;29904;51.058;5.378;2023-03-20T05:26:20;6.60;99.90
44229;DHT22;29904;51.058;5.378;2023-03-20T05:28:46;6.70;99.90
44229;DHT22;29904;51.058;5.378;2023-03-20T05:31:12;6.60;99.90
44229;DHT22;29904;51.058;5.378;2023-03-20T05:33:38;6.70;99.90
44229;DHT22;29904;51.058;5.378;2023-03-20T05:36:04;6.70;99.90
44229;DHT22;29904;51.058;5.378;2023-03-20T05:38:30;6.80;99.90
44229;DHT22;29904;51.058;5.378;2023-03-20T05:40:59;6.90;99.90
44229;DHT22;29904;51.058;5.378;2023-03-20T05:43:25;6.90;99.90
44229;DHT22;29904;51.058;5.378;2023-03-20T05:45:52;6.90;99.90
44229;DHT22;29904;51.058;5.378;2023-03-20T05:48:18;6.90;99.90
44229;DHT22;29904;51.058;5.378;2023-03-20T05:50:44;6.80;99.90
44229;DHT22;29904;51.058;5.378;2023-03-20T05:53:10;6.90;99.90
44229;DHT22;29904;51.058;5.378;2023-03-20T05:55:36;6.90;99.90
44229;DHT22;29904;51.058;5.378;2023-03-20T05:58:02;6.90;99.90
44229;DHT22;29904;51.058;5.378;2023-03-20T06:00:27;6.90;99.90
44229;DHT22;29904;51.058;5.378;2023-03-20T06:02:54;6.90;99.90
44229;DHT22;29904;51.058;5.378;2023-03-20T06:05:20;6.90;99.90
44229;DHT22;29904;51.058;5.378;2023-03-20T06:07:46;6.90;99.90
44229;DHT22;29904;51.058;5.378;2023-03-20T06:10:11;6.90;99.90
44229;DHT22;29904;51.058;5.378;2023-03-20T06:12:37;7.00;99.90
44229;DHT22;29904;51.058;5.378;2023-03-20T06:15:04;7.00;99.90
44229;DHT22;29904;51.058;5.378;2023-03-20T06:17:30;7.00;99.90
44229;DHT22;29904;51.058;5.378;2023-03-20T06:19:56;7.10;99.90
44229;DHT22;29904;51.058;5.378;2023-03-20T06:22:22;7.10;99.90
44229;DHT22;29904;51.058;5.378;2023-03-20T06:24:48;7.10;99.90
44229;DHT22;29904;51.058;5.378;2023-03-20T06:27:13;7.10;99.90
44229;DHT22;29904;51.058;5.378;2023-03-20T06:29:40;7.10;99.90
44229;DHT22;29904;51.058;5.378;2023-03-20T06:32:06;7.20;99.90
44229;DHT22;29904;51.058;5.378;2023-03-20T06:34:33;7.20;99.90
44229;DHT22;29904;51.058;5.378;2023-03-20T06:36:59;7.20;99.90
44229;DHT22;29904;51.058;5.378;2023-03-20T06:39:24;7.30;99.90
44229;DHT22;29904;51.058;5.378;2023-03-20T06:41:52;7.20;99.90
44229;DHT22;29904;51.058;5.378;2023-03-20T06:44:18;7.30;99.90
44229;DHT22;29904;51.058;5.378;2023-03-20T06:46:44;7.40;99.90
44229;DHT22;29904;51.058;5.378;2023-03-20T06:49:10;7.40;99.90
44229;DHT22;29904;51.058;5.378;2023-03-20T06:51:35;7.50;99.90
44229;DHT22;29904;51.058;5.378;2023-03-20T06:54:01;7.60;99.90
44229;DHT22;29904;51.058;5.378;2023-03-20T06:56:27;7.60;99.90
44229;DHT22;29904;51.058;5.378;2023-03-20T06:58:53;7.70;99.90
44229;DHT22;29904;51.058;5.378;2023-03-20T07:01:18;7.70;99.90
44229;DHT22;29904;51.058;5.378;2023-03-20T07:03:45;7.70;99.90
44229;DHT22;29904;51.058;5.378;2023-03-20T07:06:11;7.80;99.90
44229;DHT22;29904;51.058;5.378;2023-03-20T07:08:38;7.80;99.90
44229;DHT22;29904;51.058;5.378;2023-03-20T07:11:04;8.00;99.90
44229;DHT22;29904;51.058;5.378;2023-03-20T07:13:30;8.10;99.90
44229;DHT22;29904;51.058;5.378;2023-03-20T07:16:00;8.20;99.90
44229;DHT22;29904;51.058;5.378;2023-03-20T07:18:26;8.30;99.90
44229;DHT22;29904;51.058;5.378;2023-03-20T07:20:52;8.40;99.90
44229;DHT22;29904;51.058;5.378;2023-03-20T07:23:22;8.50;99.90
44229;DHT22;29904;51.058;5.378;2023-03-20T07:25:48;8.60;99.90
44229;DHT22;29904;51.058;5.378;2023-03-20T07:28:14;8.50;99.90
44229;DHT22;29904;51.058;5.378;2023-03-20T07:30:39;8.40;99.90
44229;DHT22;29904;51.058;5.378;2023-03-20T07:33:06;8.40;99.90
44229;DHT22;29904;51.058;5.378;2023-03-20T07:35:32;8.50;99.90
44229;DHT22;29904;51.058;5.378;2023-03-20T07:37:58;8.50;99.90
44229;DHT22;29904;51.058;5.378;2023-03-20T07:40:24;8.60;99.90
44229;DHT22;29904;51.058;5.378;2023-03-20T07:42:50;8.60;99.90
44229;DHT22;29904;51.058;5.378;2023-03-20T07:45:17;8.60;99.90
44229;DHT22;29904;51.058;5.378;2023-03-20T07:47:43;8.70;99.90
44229;DHT22;29904;51.058;5.378;2023-03-20T07:50:10;8.80;99.90
44229;DHT22;29904;51.058;5.378;2023-03-20T07:52:36;8.80;99.90
44229;DHT22;29904;51.058;5.378;2023-03-20T07:55:02;8.80;99.90
44229;DHT22;29904;51.058;5.378;2023-03-20T07:57:28;8.80;99.90
44229;DHT22;29904;51.058;5.378;2023-03-20T07:59:53;8.80;99.90
44229;DHT22;29904;51.058;5.378;2023-03-20T08:02:19;8.90;99.90
44229;DHT22;29904;51.058;5.378;2023-03-20T08:04:45;9.00;99.90
44229;DHT22;29904;51.058;5.378;2023-03-20T08:07:11;9.00;99.90
44229;DHT22;29904;51.058;5.378;2023-03-20T08:09:37;9.00;99.90
44229;DHT22;29904;51.058;5.378;2023-03-20T08:12:04;9.00;99.90
44229;DHT22;29904;51.058;5.378;2023-03-20T08:14:30;9.10;99.90
44229;DHT22;29904;51.058;5.378;2023-03-20T08:16:57;9.10;99.90
44229;DHT22;29904;51.058;5.378;2023-03-20T08:19:22;9.10;99.90
44229;DHT22;29904;51.058;5.378;2023-03-20T08:21:48;9.00;99.90
44229;DHT22;29904;51.058;5.378;2023-03-20T08:24:16;9.00;99.90
44229;DHT22;29904;51.058;5.378;2023-03-20T08:26:42;8.90;99.90
44229;DHT22;29904;51.058;5.378;2023-03-20T08:29:08;9.10;99.90
44229;DHT22;29904;51.058;5.378;2023-03-20T08:31:34;9.10;99.90
44229;DHT22;29904;51.058;5.378;2023-03-20T08:34:00;9.20;99.90
44229;DHT22;29904;51.058;5.378;2023-03-20T08:36:25;9.30;99.90
44229;DHT22;29904;51.058;5.378;2023-03-20T08:38:51;9.40;99.90
44229;DHT22;29904;51.058;5.378;2023-03-20T08:41:17;9.50;99.90
44229;DHT22;29904;51.058;5.378;2023-03-20T08:43:44;9.50;99.90
44229;DHT22;29904;51.058;5.378;2023-03-20T08:46:10;9.60;99.90
44229;DHT22;29904;51.058;5.378;2023-03-20T08:48:36;9.70;99.90
44229;DHT22;29904;51.058;5.378;2023-03-20T08:51:02;9.80;99.90
44229;DHT22;29904;51.058;5.378;2023-03-20T08:53:28;9.80;99.90
44229;DHT22;29904;51.058;5.378;2023-03-20T08:55:54;9.90;99.90
44229;DHT22;29904;51.058;5.378;2023-03-20T08:58:22;9.90;99.90
44229;DHT22;29904;51.058;5.378;2023-03-20T09:00:48;9.90;99.90
44229;DHT22;29904;51.058;5.378;2023-03-20T09:03:15;9.80;99.90
44229;DHT22;29904;51.058;5.378;2023-03-20T09:05:46;9.80;99.90
44229;DHT22;29904;51.058;5.378;2023-03-20T09:08:13;9.70;99.90
44229;DHT22;29904;51.058;5.378;2023-03-20T09:10:38;9.50;99.90
44229;DHT22;29904;51.058;5.378;2023-03-20T09:13:07;9.50;99.90
44229;DHT22;29904;51.058;5.378;2023-03-20T09:15:34;9.40;99.90
44229;DHT22;29904;51.058;5.378;2023-03-20T09:18:01;9.50;99.90
44229;DHT22;29904;51.058;5.378;2023-03-20T09:20:27;9.60;99.90
44229;DHT22;29904;51.058;5.378;2023-03-20T09:22:52;9.60;99.90
44229;DHT22;29904;51.058;5.378;2023-03-20T09:25:18;9.50;99.90
44229;DHT22;29904;51.058;5.378;2023-03-20T09:27:44;9.50;99.90
44229;DHT22;29904;51.058;5.378;2023-03-20T09:30:11;9.50;99.90
44229;DHT22;29904;51.058;5.378;2023-03-20T09:32:37;9.40;99.90
44229;DHT22;29904;51.058;5.378;2023-03-20T09:35:03;9.40;99.90
44229;DHT22;29904;51.058;5.378;2023-03-20T09:37:29;9.40;99.90
44229;DHT22;29904;51.058;5.378;2023-03-20T09:39:55;9.40;99.90
44229;DHT22;29904;51.058;5.378;2023-03-20T09:42:38;9.30;99.90
44229;DHT22;29904;51.058;5.378;2023-03-20T09:47:59;9.20;99.90
44229;DHT22;29904;51.058;5.378;2023-03-20T09:50:29;9.20;99.90
44229;DHT22;29904;51.058;5.378;2023-03-20T09:53:24;9.20;99.90
44229;DHT22;29904;51.058;5.378;2023-03-20T09:55:53;9.20;99.90
44229;DHT22;29904;51.058;5.378;2023-03-20T09:58:24;9.20;99.90
44229;DHT22;29904;51.058;5.378;2023-03-20T10:00:51;9.20;99.90
44229;DHT22;29904;51.058;5.378;2023-03-20T10:03:18;9.20;99.90
44229;DHT22;29904;51.058;5.378;2023-03-20T10:05:59;9.20;99.90
44229;DHT22;29904;51.058;5.378;2023-03-20T10:08:31;9.00;99.90
44229;DHT22;29904;51.058;5.378;2023-03-20T10:13:52;9.00;99.90
44229;DHT22;29904;51.058;5.378;2023-03-20T10:16:38;9.00;99.90
44229;DHT22;29904;51.058;5.378;2023-03-20T10:19:28;9.00;99.90
44229;DHT22;29904;51.058;5.378;2023-03-20T10:25:07;8.80;99.90
44229;DHT22;29904;51.058;5.378;2023-03-20T10:27:47;8.80;99.90
44229;DHT22;29904;51.058;5.378;2023-03-20T10:30:20;8.90;99.90
44229;DHT22;29904;51.058;5.378;2023-03-20T10:35:25;9.10;99.90
44229;DHT22;29904;51.058;5.378;2023-03-20T10:42:54;9.60;99.90
44229;DHT22;29904;51.058;5.378;2023-03-20T10:45:45;9.60;99.90
44229;DHT22;29904;51.058;5.378;2023-03-20T10:51:11;9.90;99.90
44229;DHT22;29904;51.058;5.378;2023-03-20T10:56:11;10.10;99.90
44229;DHT22;29904;51.058;5.378;2023-03-20T10:58:39;10.20;99.90
44229;DHT22;29904;51.058;5.378;2023-03-20T11:01:06;10.20;99.90
44229;DHT22;29904;51.058;5.378;2023-03-20T11:03:33;10.30;99.90
44229;DHT22;29904;51.058;5.378;2023-03-20T11:06:03;10.50;99.90
44229;DHT22;29904;51.058;5.378;2023-03-20T11:08:34;10.60;99.90
44229;DHT22;29904;51.058;5.378;2023-03-20T11:11:02;10.80;99.90
44229;DHT22;29904;51.058;5.378;2023-03-20T11:13:34;11.00;99.90
44229;DHT22;29904;51.058;5.378;2023-03-20T11:18:41;11.00;99.90
44229;DHT22;29904;51.058;5.378;2023-03-20T11:21:25;11.20;99.90
44229;DHT22;29904;51.058;5.378;2023-03-20T11:23:52;11.50;99.90
44229;DHT22;29904;51.058;5.378;2023-03-20T11:28:55;11.60;99.90
44229;DHT22;29904;51.058;5.378;2023-03-20T11:31:36;11.80;99.90
44229;DHT22;29904;51.058;5.378;2023-03-20T11:36:30;12.00;99.90
44229;DHT22;29904;51.058;5.378;2023-03-20T11:39:14;12.00;99.90
44229;DHT22;29904;51.058;5.378;2023-03-20T11:47:02;11.90;99.90
44229;DHT22;29904;51.058;5.378;2023-03-20T11:49:29;11.90;99.90
44229;DHT22;29904;51.058;5.378;2023-03-20T11:51:59;12.00;99.90
44229;DHT22;29904;51.058;5.378;2023-03-20T11:54:26;12.00;99.90
44229;DHT22;29904;51.058;5.378;2023-03-20T11:56:56;12.00;99.90
44229;DHT22;29904;51.058;5.378;2023-03-20T11:59:25;11.90;99.90
44229;DHT22;29904;51.058;5.378;2023-03-20T12:01:54;11.90;99.90
44229;DHT22;29904;51.058;5.378;2023-03-20T12:04:33;12.00;99.90
44229;DHT22;29904;51.058;5.378;2023-03-20T12:07:03;12.10;99.90
44229;DHT22;29904;51.058;5.378;2023-03-20T12:09:47;12.20;99.90
44229;DHT22;29904;51.058;5.378;2023-03-20T12:18:04;12.20;99.90
44229;DHT22;29904;51.058;5.378;2023-03-20T12:26:13;12.60;99.90
44229;DHT22;29904;51.058;5.378;2023-03-20T12:34:25;12.40;99.90
44229;DHT22;29904;51.058;5.378;2023-03-20T12:36:54;12.50;99.90
44229;DHT22;29904;51.058;5.378;2023-03-20T12:39:24;12.60;99.90
44229;DHT22;29904;51.058;5.378;2023-03-20T12:49:50;13.20;99.90
44229;DHT22;29904;51.058;5.378;2023-03-20T12:57:36;13.50;99.90
44229;DHT22;29904;51.058;5.378;2023-03-20T13:03:18;13.40;99.90
44229;DHT22;29904;51.058;5.378;2023-03-20T13:14:40;12.80;99.90
44229;DHT22;29904;51.058;5.378;2023-03-20T13:37:15;12.50;99.90
44229;DHT22;29904;51.058;5.378;2023-03-20T13:39:58;12.70;99.90
44229;DHT22;29904;51.058;5.378;2023-03-20T13:42:30;12.70;99.90
44229;DHT22;29904;51.058;5.378;2023-03-20T13:45:04;12.80;99.90
44229;DHT22;29904;51.058;5.378;2023-03-20T13:47:32;12.90;99.90
44229;DHT22;29904;51.058;5.378;2023-03-20T13:53:26;12.90;99.90
44229;DHT22;29904;51.058;5.378;2023-03-20T13:56:07;12.90;99.90
44229;DHT22;29904;51.058;5.378;2023-03-20T13:59:20;12.80;99.90
44229;DHT22;29904;51.058;5.378;2023-03-20T14:05:27;12.70;99.90
44229;DHT22;29904;51.058;5.378;2023-03-20T14:07:48;12.60;99.90
44229;DHT22;29904;51.058;5.378;2023-03-20T14:13:00;12.50;99.90
44229;DHT22;29904;51.058;5.378;2023-03-20T14:15:29;12.50;99.90
44229;DHT22;29904;51.058;5.378;2023-03-20T14:17:56;12.30;99.90
44229;DHT22;29904;51.058;5.378;2023-03-20T14:20:34;12.20;99.90
44229;DHT22;29904;51.058;5.378;2023-03-20T14:23:01;12.20;99.90
44229;DHT22;29904;51.058;5.378;2023-03-20T14:25:38;12.10;99.90
44229;DHT22;29904;51.058;5.378;2023-03-20T14:28:24;12.10;99.90
44229;DHT22;29904;51.058;5.378;2023-03-20T14:31:11;12.10;99.90
44229;DHT22;29904;51.058;5.378;2023-03-20T14:33:59;12.00;99.90
44229;DHT22;29904;51.058;5.378;2023-03-20T14:36:40;11.90;99.90
44229;DHT22;29904;51.058;5.378;2023-03-20T14:41:59;11.90;99.90
44229;DHT22;29904;51.058;5.378;2023-03-20T14:53:17;11.60;99.90
44229;DHT22;29904;51.058;5.378;2023-03-20T14:58:46;11.50;99.90
44229;DHT22;29904;51.058;5.378;2023-03-20T15:01:25;11.50;99.90
44229;DHT22;29904;51.058;5.378;2023-03-20T15:04:05;11.50;99.90
44229;DHT22;29904;51.058;5.378;2023-03-20T15:06:34;11.50;99.90
44229;DHT22;29904;51.058;5.378;2023-03-20T15:09:06;11.50;99.90
44229;DHT22;29904;51.058;5.378;2023-03-20T15:11:33;11.50;99.90
44229;DHT22;29904;51.058;5.378;2023-03-20T15:14:01;11.50;99.90
44229;DHT22;29904;51.058;5.378;2023-03-20T15:16:30;11.50;99.90
44229;DHT22;29904;51.058;5.378;2023-03-20T15:18:56;11.50;99.90
44229;DHT22;29904;51.058;5.378;2023-03-20T15:21:39;11.60;99.90
44229;DHT22;29904;51.058;5.378;2023-03-20T15:24:06;11.60;99.90
44229;DHT22;29904;51.058;5.378;2023-03-20T15:26:34;11.70;99.90
44229;DHT22;29904;51.058;5.378;2023-03-20T15:29:09;11.70;99.90
44229;DHT22;29904;51.058;5.378;2023-03-20T15:31:37;11.80;99.90
44229;DHT22;29904;51.058;5.378;2023-03-20T15:34:29;11.80;99.90
44229;DHT22;29904;51.058;5.378;2023-03-20T15:36:58;11.80;99.90
44229;DHT22;29904;51.058;5.378;2023-03-20T15:39:26;11.80;99.90
44229;DHT22;29904;51.058;5.378;2023-03-20T15:42:02;11.80;99.90
44229;DHT22;29904;51.058;5.378;2023-03-20T15:44:38;11.80;99.90
44229;DHT22;29904;51.058;5.378;2023-03-20T15:47:18;11.80;99.90
44229;DHT22;29904;51.058;5.378;2023-03-20T15:49:54;11.90;99.90
44229;DHT22;29904;51.058;5.378;2023-03-20T15:52:34;12.00;99.90
44229;DHT22;29904;51.058;5.378;2023-03-20T15:55:08;12.00;99.90
44229;DHT22;29904;51.058;5.378;2023-03-20T15:57:38;12.10;99.90
44229;DHT22;29904;51.058;5.378;2023-03-20T16:00:20;12.00;99.90
44229;DHT22;29904;51.058;5.378;2023-03-20T16:02:47;12.00;99.90
44229;DHT22;29904;51.058;5.378;2023-03-20T16:05:16;12.00;99.90
44229;DHT22;29904;51.058;5.378;2023-03-20T16:07:42;12.10;99.90
44229;DHT22;29904;51.058;5.378;2023-03-20T16:12:51;12.10;99.90
44229;DHT22;29904;51.058;5.378;2023-03-20T16:15:22;12.00;99.90
44229;DHT22;29904;51.058;5.378;2023-03-20T16:17:51;12.00;99.90
44229;DHT22;29904;51.058;5.378;2023-03-20T16:20:18;12.00;99.90
44229;DHT22;29904;51.058;5.378;2023-03-20T16:22:44;12.00;99.90
44229;DHT22;29904;51.058;5.378;2023-03-20T16:25:15;12.00;99.90
44229;DHT22;29904;51.058;5.378;2023-03-20T16:27:48;11.90;99.90
44229;DHT22;29904;51.058;5.378;2023-03-20T16:30:21;11.80;99.90
44229;DHT22;29904;51.058;5.378;2023-03-20T16:32:54;11.80;99.90
44229;DHT22;29904;51.058;5.378;2023-03-20T16:37:57;11.70;99.90
44229;DHT22;29904;51.058;5.378;2023-03-20T16:40:36;11.70;99.90
44229;DHT22;29904;51.058;5.378;2023-03-20T16:43:17;11.80;99.90
44229;DHT22;29904;51.058;5.378;2023-03-20T16:45:48;11.80;99.90
44229;DHT22;29904;51.058;5.378;2023-03-20T16:50:42;11.70;99.90
44229;DHT22;29904;51.058;5.378;2023-03-20T16:53:18;11.70;99.90
44229;DHT22;29904;51.058;5.378;2023-03-20T16:55:47;11.60;99.90
44229;DHT22;29904;51.058;5.378;2023-03-20T16:58:17;11.70;99.90
44229;DHT22;29904;51.058;5.378;2023-03-20T17:00:51;11.70;99.90
44229;DHT22;29904;51.058;5.378;2023-03-20T17:03:23;11.70;99.90
44229;DHT22;29904;51.058;5.378;2023-03-20T17:08:24;11.70;99.90
44229;DHT22;29904;51.058;5.378;2023-03-20T17:10:55;11.80;99.90
44229;DHT22;29904;51.058;5.378;2023-03-20T17:13:21;11.80;99.90
44229;DHT22;29904;51.058;5.378;2023-03-20T17:15:47;11.80;99.90
44229;DHT22;29904;51.058;5.378;2023-03-20T17:18:13;11.90;99.90
44229;DHT22;29904;51.058;5.378;2023-03-20T17:20:39;11.80;99.90
44229;DHT22;29904;51.058;5.378;2023-03-20T17:23:12;11.80;99.90
44229;DHT22;29904;51.058;5.378;2023-03-20T17:25:38;11.70;99.90
44229;DHT22;29904;51.058;5.378;2023-03-20T17:28:04;11.80;99.90
44229;DHT22;29904;51.058;5.378;2023-03-20T17:30:30;11.80;99.90
44229;DHT22;29904;51.058;5.378;2023-03-20T17:32:56;11.80;99.90
44229;DHT22;29904;51.058;5.378;2023-03-20T17:35:21;11.70;99.90
44229;DHT22;29904;51.058;5.378;2023-03-20T17:37:47;11.70;99.90
44229;DHT22;29904;51.058;5.378;2023-03-20T17:40:21;11.70;99.90
44229;DHT22;29904;51.058;5.378;2023-03-20T17:42:47;11.60;99.90
44229;DHT22;29904;51.058;5.378;2023-03-20T17:45:15;11.60;99.90
44229;DHT22;29904;51.058;5.378;2023-03-20T17:47:42;11.60;99.90
44229;DHT22;29904;51.058;5.378;2023-03-20T17:50:19;11.60;99.90
44229;DHT22;29904;51.058;5.378;2023-03-20T17:52:45;11.60;99.90
44229;DHT22;29904;51.058;5.378;2023-03-20T17:55:11;11.60;99.90
44229;DHT22;29904;51.058;5.378;2023-03-20T17:57:39;11.50;99.90
44229;DHT22;29904;51.058;5.378;2023-03-20T18:00:18;11.50;99.90
44229;DHT22;29904;51.058;5.378;2023-03-20T18:02:44;11.50;99.90
44229;DHT22;29904;51.058;5.378;2023-03-20T18:05:10;11.40;99.90
44229;DHT22;29904;51.058;5.378;2023-03-20T18:07:36;11.40;99.90
44229;DHT22;29904;51.058;5.378;2023-03-20T18:10:02;11.40;99.90
44229;DHT22;29904;51.058;5.378;2023-03-20T18:12:29;11.40;99.90
44229;DHT22;29904;51.058;5.378;2023-03-20T18:14:55;11.40;99.90
44229;DHT22;29904;51.058;5.378;2023-03-20T18:17:20;11.40;99.90
44229;DHT22;29904;51.058;5.378;2023-03-20T18:19:46;11.40;99.90
44229;DHT22;29904;51.058;5.378;2023-03-20T18:22:12;11.40;99.90
44229;DHT22;29904;51.058;5.378;2023-03-20T18:24:38;11.40;99.90
44229;DHT22;29904;51.058;5.378;2023-03-20T18:27:06;11.30;99.90
44229;DHT22;29904;51.058;5.378;2023-03-20T18:29:33;11.30;99.90
44229;DHT22;29904;51.058;5.378;2023-03-20T18:31:59;11.30;99.90
44229;DHT22;29904;51.058;5.378;2023-03-20T18:34:24;11.20;99.90
44229;DHT22;29904;51.058;5.378;2023-03-20T18:36:50;11.20;99.90
44229;DHT22;29904;51.058;5.378;2023-03-20T18:39:18;11.20;99.90
44229;DHT22;29904;51.058;5.378;2023-03-20T18:41:45;11.20;99.90
44229;DHT22;29904;51.058;5.378;2023-03-20T18:44:11;11.20;99.90